sensor_id;sensor_type;location;lat;lon;timestamp;pressure;altitude;pressure_sealevel;temperature;humidity
11448;BME280;43755;49.736;8.734;2023-02-10T00:01:11;99659.75;;;-1.71;100.00
11448;BME280;43755;49.736;8.734;2023-02-10T00:03:13;99663.03;;;-1.78;100.00
11448;BME280;43755;49.736;8.734;2023-02-10T00:05:15;99655.66;;;-1.91;100.00
11448;BME280;43755;49.736;8.734;2023-02-10T00:07:16;99658.13;;;-1.94;100.00
11448;BME280;43755;49.736;8.734;2023-02-10T00:09:18;99663.91;;;-2.02;100.00
11448;BME280;43755;49.736;8.734;2023-02-10T00:11:20;99676.53;;;-2.13;100.00
11448;BME280;43755;49.736;8.734;2023-02-10T00:13:42;99674.03;;;-2.10;100.00
11448;BME280;43755;49.736;8.734;2023-02-10T00:15:46;99665.84;;;-1.97;100.00
11448;BME280;43755;49.736;8.734;2023-02-10T00:17:47;99669.53;;;-1.90;100.00
11448;BME280;43755;49.736;8.734;2023-02-10T00:19:48;99677.38;;;-1.87;100.00
11448;BME280;43755;49.736;8.734;2023-02-10T00:21:50;99688.44;;;-1.93;100.00
11448;BME280;43755;49.736;8.734;2023-02-10T00:23:52;99686.47;;;-2.00;100.00
11448;BME280;43755;49.736;8.734;2023-02-10T00:25:53;99685.91;;;-2.17;100.00
11448;BME280;43755;49.736;8.734;2023-02-10T00:27:54;99689.91;;;-2.26;100.00
11448;BME280;43755;49.736;8.734;2023-02-10T00:29:56;99690.22;;;-2.41;100.00
11448;BME280;43755;49.736;8.734;2023-02-10T00:31:58;99694.13;;;-2.54;100.00
11448;BME280;43755;49.736;8.734;2023-02-10T00:34:00;99698.06;;;-2.63;100.00
11448;BME280;43755;49.736;8.734;2023-02-10T00:36:03;99692.50;;;-2.74;100.00
11448;BME280;43755;49.736;8.734;2023-02-10T00:38:04;99700.78;;;-2.84;100.00
11448;BME280;43755;49.736;8.734;2023-02-10T00:40:06;99706.41;;;-2.94;100.00
11448;BME280;43755;49.736;8.734;2023-02-10T00:42:08;99707.53;;;-2.88;100.00
11448;BME280;43755;49.736;8.734;2023-02-10T00:44:09;99703.78;;;-2.96;100.00
11448;BME280;43755;49.736;8.734;2023-02-10T00:46:11;99706.50;;;-2.93;100.00
11448;BME280;43755;49.736;8.734;2023-02-10T00:48:14;99708.75;;;-3.02;100.00
11448;BME280;43755;49.736;8.734;2023-02-10T00:50:16;99713.44;;;-3.14;100.00
11448;BME280;43755;49.736;8.734;2023-02-10T00:52:17;99714.69;;;-3.26;100.00
11448;BME280;43755;49.736;8.734;2023-02-10T00:54:19;99718.72;;;-3.33;100.00
11448;BME280;43755;49.736;8.734;2023-02-10T00:56:20;99719.31;;;-3.40;100.00
11448;BME280;43755;49.736;8.734;2023-02-10T00:58:22;99725.75;;;-3.51;100.00
11448;BME280;43755;49.736;8.734;2023-02-10T01:00:23;99738.38;;;-3.59;100.00
11448;BME280;43755;49.736;8.734;2023-02-10T01:02:25;99743.06;;;-3.71;100.00
11448;BME280;43755;49.736;8.734;2023-02-10T01:04:27;99744.16;;;-3.66;100.00
11448;BME280;43755;49.736;8.734;2023-02-10T01:06:29;99744.97;;;-3.67;100.00
11448;BME280;43755;49.736;8.734;2023-02-10T01:08:30;99745.06;;;-3.64;100.00
11448;BME280;43755;49.736;8.734;2023-02-10T01:10:32;99739.16;;;-3.61;100.00
11448;BME280;43755;49.736;8.734;2023-02-10T01:12:34;99751.28;;;-3.60;100.00
11448;BME280;43755;49.736;8.734;2023-02-10T01:14:36;99741.69;;;-3.63;100.00
11448;BME280;43755;49.736;8.734;2023-02-10T01:16:37;99743.31;;;-3.65;100.00
11448;BME280;43755;49.736;8.734;2023-02-10T01:18:40;99738.72;;;-3.72;100.00
11448;BME280;43755;49.736;8.734;2023-02-10T01:20:43;99740.28;;;-3.76;100.00
11448;BME280;43755;49.736;8.734;2023-02-10T01:22:45;99742.84;;;-3.77;100.00
11448;BME280;43755;49.736;8.734;2023-02-10T01:24:46;99746.00;;;-3.83;100.00
11448;BME280;43755;49.736;8.734;2023-02-10T01:26:47;99743.50;;;-3.81;100.00
11448;BME280;43755;49.736;8.734;2023-02-10T01:28:49;99746.28;;;-3.77;100.00
11448;BME280;43755;49.736;8.734;2023-02-10T01:30:51;99744.31;;;-3.82;100.00
11448;BME280;43755;49.736;8.734;2023-02-10T01:32:52;99745.53;;;-3.74;100.00
11448;BME280;43755;49.736;8.734;2023-02-10T01:34:54;99746.97;;;-3.81;100.00
11448;BME280;43755;49.736;8.734;2023-02-10T01:36:57;99747.13;;;-3.78;100.00
11448;BME280;43755;49.736;8.734;2023-02-10T01:38:58;99738.97;;;-3.87;100.00
11448;BME280;43755;49.736;8.734;2023-02-10T01:41:00;99736.53;;;-3.84;100.00
11448;BME280;43755;49.736;8.734;2023-02-10T01:43:01;99738.97;;;-3.87;100.00
11448;BME280;43755;49.736;8.734;2023-02-10T01:45:13;99741.19;;;-3.96;100.00
11448;BME280;43755;49.736;8.734;2023-02-10T01:47:14;99746.84;;;-4.04;100.00
11448;BME280;43755;49.736;8.734;2023-02-10T01:49:18;99748.34;;;-4.09;100.00
11448;BME280;43755;49.736;8.734;2023-02-10T01:51:25;99745.56;;;-4.14;100.00
11448;BME280;43755;49.736;8.734;2023-02-10T01:53:30;99743.72;;;-4.17;100.00
11448;BME280;43755;49.736;8.734;2023-02-10T01:55:33;99755.91;;;-4.14;100.00
11448;BME280;43755;49.736;8.734;2023-02-10T01:57:35;99753.31;;;-4.14;100.00
11448;BME280;43755;49.736;8.734;2023-02-10T01:59:39;99750.84;;;-4.11;100.00
11448;BME280;43755;49.736;8.734;2023-02-10T02:01:41;99746.47;;;-4.14;100.00
11448;BME280;43755;49.736;8.734;2023-02-10T02:03:43;99745.50;;;-4.16;100.00
11448;BME280;43755;49.736;8.734;2023-02-10T02:05:45;99752.38;;;-4.16;100.00
11448;BME280;43755;49.736;8.734;2023-02-10T02:07:47;99748.59;;;-4.24;100.00
11448;BME280;43755;49.736;8.734;2023-02-10T02:09:51;99747.34;;;-4.32;100.00
11448;BME280;43755;49.736;8.734;2023-02-10T02:11:57;99749.94;;;-4.32;100.00
11448;BME280;43755;49.736;8.734;2023-02-10T02:14:12;99751.63;;;-4.33;100.00
11448;BME280;43755;49.736;8.734;2023-02-10T02:16:27;99751.28;;;-4.21;100.00
11448;BME280;43755;49.736;8.734;2023-02-10T02:18:36;99756.25;;;-4.26;100.00
11448;BME280;43755;49.736;8.734;2023-02-10T02:20:57;99749.94;;;-4.32;100.00
11448;BME280;43755;49.736;8.734;2023-02-10T02:23:09;99764.47;;;-4.34;100.00
11448;BME280;43755;49.736;8.734;2023-02-10T02:25:23;99757.63;;;-4.34;100.00
11448;BME280;43755;49.736;8.734;2023-02-10T02:27:37;99767.06;;;-4.34;100.00
11448;BME280;43755;49.736;8.734;2023-02-10T02:29:58;99766.69;;;-4.43;100.00
11448;BME280;43755;49.736;8.734;2023-02-10T02:32:08;99765.63;;;-4.28;100.00
11448;BME280;43755;49.736;8.734;2023-02-10T02:34:15;99770.34;;;-4.19;100.00
11448;BME280;43755;49.736;8.734;2023-02-10T02:36:22;99771.53;;;-4.11;100.00
11448;BME280;43755;49.736;8.734;2023-02-10T02:38:26;99775.78;;;-4.13;100.00
11448;BME280;43755;49.736;8.734;2023-02-10T02:40:28;99782.56;;;-4.15;100.00
11448;BME280;43755;49.736;8.734;2023-02-10T02:42:30;99784.75;;;-4.24;100.00
11448;BME280;43755;49.736;8.734;2023-02-10T02:44:32;99784.34;;;-4.33;100.00
11448;BME280;43755;49.736;8.734;2023-02-10T02:46:46;99783.25;;;-4.38;100.00
11448;BME280;43755;49.736;8.734;2023-02-10T02:48:58;99778.38;;;-4.32;100.00
11448;BME280;43755;49.736;8.734;2023-02-10T02:51:05;99773.53;;;-4.25;100.00
11448;BME280;43755;49.736;8.734;2023-02-10T02:53:19;99780.34;;;-4.27;100.00
11448;BME280;43755;49.736;8.734;2023-02-10T02:55:28;99776.66;;;-4.32;100.00
11448;BME280;43755;49.736;8.734;2023-02-10T02:57:39;99789.16;;;-4.41;100.00
11448;BME280;43755;49.736;8.734;2023-02-10T02:59:46;99785.69;;;-4.41;100.00
11448;BME280;43755;49.736;8.734;2023-02-10T03:01:51;99784.16;;;-4.38;100.00
11448;BME280;43755;49.736;8.734;2023-02-10T03:03:58;99795.41;;;-4.36;100.00
11448;BME280;43755;49.736;8.734;2023-02-10T03:06:00;99792.03;;;-4.35;100.00
11448;BME280;43755;49.736;8.734;2023-02-10T03:08:01;99797.34;;;-4.32;100.00
11448;BME280;43755;49.736;8.734;2023-02-10T03:10:04;99796.72;;;-4.26;100.00
11448;BME280;43755;49.736;8.734;2023-02-10T03:12:06;99792.28;;;-4.29;100.00
11448;BME280;43755;49.736;8.734;2023-02-10T03:14:07;99788.81;;;-4.29;100.00
11448;BME280;43755;49.736;8.734;2023-02-10T03:16:09;99792.25;;;-4.30;100.00
11448;BME280;43755;49.736;8.734;2023-02-10T03:18:10;99784.53;;;-4.29;100.00
11448;BME280;43755;49.736;8.734;2023-02-10T03:20:13;99787.19;;;-4.27;100.00
11448;BME280;43755;49.736;8.734;2023-02-10T03:22:14;99778.63;;;-4.26;100.00
11448;BME280;43755;49.736;8.734;2023-02-10T03:24:16;99776.75;;;-4.30;100.00
11448;BME280;43755;49.736;8.734;2023-02-10T03:26:18;99779.09;;;-4.35;100.00
11448;BME280;43755;49.736;8.734;2023-02-10T03:28:20;99781.28;;;-4.44;100.00
11448;BME280;43755;49.736;8.734;2023-02-10T03:30:21;99782.63;;;-4.52;100.00
11448;BME280;43755;49.736;8.734;2023-02-10T03:32:23;99777.53;;;-4.50;100.00
11448;BME280;43755;49.736;8.734;2023-02-10T03:34:24;99779.03;;;-4.56;100.00
11448;BME280;43755;49.736;8.734;2023-02-10T03:36:27;99778.84;;;-4.60;100.00
11448;BME280;43755;49.736;8.734;2023-02-10T03:38:29;99777.81;;;-4.64;100.00
11448;BME280;43755;49.736;8.734;2023-02-10T03:40:30;99769.94;;;-4.67;100.00
11448;BME280;43755;49.736;8.734;2023-02-10T03:42:32;99771.63;;;-4.67;100.00
11448;BME280;43755;49.736;8.734;2023-02-10T03:44:33;99777.81;;;-4.64;100.00
11448;BME280;43755;49.736;8.734;2023-02-10T03:46:35;99773.25;;;-4.69;100.00
11448;BME280;43755;49.736;8.734;2023-02-10T03:48:37;99775.72;;;-4.72;100.00
11448;BME280;43755;49.736;8.734;2023-02-10T03:50:39;99777.94;;;-4.80;100.00
11448;BME280;43755;49.736;8.734;2023-02-10T03:52:42;99782.88;;;-4.84;100.00
11448;BME280;43755;49.736;8.734;2023-02-10T03:54:43;99779.53;;;-4.82;100.00
11448;BME280;43755;49.736;8.734;2023-02-10T03:56:44;99780.50;;;-4.80;100.00
11448;BME280;43755;49.736;8.734;2023-02-10T03:58:46;99777.78;;;-4.83;100.00
11448;BME280;43755;49.736;8.734;2023-02-10T04:00:48;99774.38;;;-4.82;100.00
11448;BME280;43755;49.736;8.734;2023-02-10T04:02:49;99774.53;;;-4.79;100.00
11448;BME280;43755;49.736;8.734;2023-02-10T04:04:50;99777.84;;;-4.81;100.00
11448;BME280;43755;49.736;8.734;2023-02-10T04:06:52;99783.09;;;-4.80;100.00
11448;BME280;43755;49.736;8.734;2023-02-10T04:08:55;99780.06;;;-4.71;100.00
11448;BME280;43755;49.736;8.734;2023-02-10T04:10:56;99782.84;;;-4.67;100.00
11448;BME280;43755;49.736;8.734;2023-02-10T04:12:58;99784.63;;;-4.66;100.00
11448;BME280;43755;49.736;8.734;2023-02-10T04:14:59;99788.50;;;-4.56;100.00
11448;BME280;43755;49.736;8.734;2023-02-10T04:17:00;99794.00;;;-4.48;100.00
11448;BME280;43755;49.736;8.734;2023-02-10T04:19:02;99789.94;;;-4.43;100.00
11448;BME280;43755;49.736;8.734;2023-02-10T04:21:04;99788.53;;;-4.35;100.00
11448;BME280;43755;49.736;8.734;2023-02-10T04:23:06;99791.28;;;-4.32;100.00
11448;BME280;43755;49.736;8.734;2023-02-10T04:25:09;99792.03;;;-4.35;100.00
11448;BME280;43755;49.736;8.734;2023-02-10T04:27:10;99793.44;;;-4.41;100.00
11448;BME280;43755;49.736;8.734;2023-02-10T04:29:12;99801.97;;;-4.44;100.00
11448;BME280;43755;49.736;8.734;2023-02-10T04:31:13;99801.75;;;-4.48;100.00
11448;BME280;43755;49.736;8.734;2023-02-10T04:33:15;99812.22;;;-4.45;100.00
11448;BME280;43755;49.736;8.734;2023-02-10T04:35:16;99812.41;;;-4.41;100.00
11448;BME280;43755;49.736;8.734;2023-02-10T04:37:18;99808.28;;;-4.37;100.00
11448;BME280;43755;49.736;8.734;2023-02-10T04:39:19;99809.44;;;-4.31;100.00
11448;BME280;43755;49.736;8.734;2023-02-10T04:41:22;99806.91;;;-4.29;100.00
11448;BME280;43755;49.736;8.734;2023-02-10T04:43:24;99811.34;;;-4.27;100.00
11448;BME280;43755;49.736;8.734;2023-02-10T04:45:25;99808.84;;;-4.25;100.00
11448;BME280;43755;49.736;8.734;2023-02-10T04:47:27;99818.56;;;-4.20;100.00
11448;BME280;43755;49.736;8.734;2023-02-10T04:49:29;99812.50;;;-4.20;100.00
11448;BME280;43755;49.736;8.734;2023-02-10T04:51:30;99822.16;;;-4.16;100.00
11448;BME280;43755;49.736;8.734;2023-02-10T04:53:31;99815.28;;;-4.16;100.00
11448;BME280;43755;49.736;8.734;2023-02-10T04:55:33;99824.91;;;-4.12;100.00
11448;BME280;43755;49.736;8.734;2023-02-10T04:57:36;99831.94;;;-4.09;100.00
11448;BME280;43755;49.736;8.734;2023-02-10T04:59:37;99831.22;;;-4.06;100.00
11448;BME280;43755;49.736;8.734;2023-02-10T05:01:39;99837.38;;;-4.03;100.00
11448;BME280;43755;49.736;8.734;2023-02-10T05:03:40;99832.59;;;-3.94;100.00
11448;BME280;43755;49.736;8.734;2023-02-10T05:05:42;99832.81;;;-3.89;100.00
11448;BME280;43755;49.736;8.734;2023-02-10T05:07:43;99840.97;;;-3.80;100.00
11448;BME280;43755;49.736;8.734;2023-02-10T05:09:46;99835.06;;;-3.78;100.00
11448;BME280;43755;49.736;8.734;2023-02-10T05:11:48;99840.41;;;-3.73;100.00
11448;BME280;43755;49.736;8.734;2023-02-10T05:13:50;99837.94;;;-3.70;100.00
11448;BME280;43755;49.736;8.734;2023-02-10T05:15:52;99845.03;;;-3.66;100.00
11448;BME280;43755;49.736;8.734;2023-02-10T05:17:53;99848.63;;;-3.62;100.00
11448;BME280;43755;49.736;8.734;2023-02-10T05:19:55;99847.03;;;-3.59;100.00
11448;BME280;43755;49.736;8.734;2023-02-10T05:21:57;99851.84;;;-3.47;100.00
11448;BME280;43755;49.736;8.734;2023-02-10T05:23:58;99839.06;;;-3.44;100.00
11448;BME280;43755;49.736;8.734;2023-02-10T05:26:00;99837.59;;;-3.38;100.00
11448;BME280;43755;49.736;8.734;2023-02-10T05:28:02;99834.00;;;-3.41;100.00
11448;BME280;43755;49.736;8.734;2023-02-10T05:30:05;99838.34;;;-3.40;100.00
11448;BME280;43755;49.736;8.734;2023-02-10T05:32:09;99831.53;;;-3.38;100.00
11448;BME280;43755;49.736;8.734;2023-02-10T05:34:10;99835.94;;;-3.36;100.00
11448;BME280;43755;49.736;8.734;2023-02-10T05:36:12;99835.13;;;-3.35;100.00
11448;BME280;43755;49.736;8.734;2023-02-10T05:38:13;99838.75;;;-3.31;100.00
11448;BME280;43755;49.736;8.734;2023-02-10T05:40:15;99845.00;;;-3.26;100.00
11448;BME280;43755;49.736;8.734;2023-02-10T05:42:16;99841.88;;;-3.17;100.00
11448;BME280;43755;49.736;8.734;2023-02-10T05:44:18;99842.97;;;-3.12;100.00
11448;BME280;43755;49.736;8.734;2023-02-10T05:46:20;99838.84;;;-3.07;100.00
11448;BME280;43755;49.736;8.734;2023-02-10T05:48:22;99851.19;;;-3.00;100.00
11448;BME280;43755;49.736;8.734;2023-02-10T05:50:24;99829.81;;;-2.96;100.00
11448;BME280;43755;49.736;8.734;2023-02-10T05:52:26;99843.16;;;-2.85;100.00
11448;BME280;43755;49.736;8.734;2023-02-10T05:54:27;99847.88;;;-2.75;100.00
11448;BME280;43755;49.736;8.734;2023-02-10T05:56:30;99855.91;;;-2.69;100.00
11448;BME280;43755;49.736;8.734;2023-02-10T05:58:31;99846.66;;;-2.63;100.00
11448;BME280;43755;49.736;8.734;2023-02-10T06:00:33;99854.84;;;-2.52;100.00
11448;BME280;43755;49.736;8.734;2023-02-10T06:02:36;99855.88;;;-2.47;100.00
11448;BME280;43755;49.736;8.734;2023-02-10T06:04:37;99860.47;;;-2.40;100.00
11448;BME280;43755;49.736;8.734;2023-02-10T06:06:39;99856.34;;;-2.35;100.00
11448;BME280;43755;49.736;8.734;2023-02-10T06:08:40;99859.25;;;-2.27;100.00
11448;BME280;43755;49.736;8.734;2023-02-10T06:10:41;99863.78;;;-2.22;100.00
11448;BME280;43755;49.736;8.734;2023-02-10T06:12:43;99864.13;;;-2.13;100.00
11448;BME280;43755;49.736;8.734;2023-02-10T06:14:44;99860.88;;;-2.07;100.00
11448;BME280;43755;49.736;8.734;2023-02-10T06:16:46;99864.50;;;-2.02;100.00
11448;BME280;43755;49.736;8.734;2023-02-10T06:18:49;99867.28;;;-1.97;100.00
11448;BME280;43755;49.736;8.734;2023-02-10T06:20:50;99865.63;;;-1.95;100.00
11448;BME280;43755;49.736;8.734;2023-02-10T06:22:52;99862.25;;;-1.93;100.00
11448;BME280;43755;49.736;8.734;2023-02-10T06:24:53;99860.09;;;-1.81;100.00
11448;BME280;43755;49.736;8.734;2023-02-10T06:26:54;99867.53;;;-1.66;100.00
11448;BME280;43755;49.736;8.734;2023-02-10T06:28:56;99860.19;;;-1.54;100.00
11448;BME280;43755;49.736;8.734;2023-02-10T06:30:57;99857.16;;;-1.41;100.00
11448;BME280;43755;49.736;8.734;2023-02-10T06:32:59;99852.09;;;-1.38;100.00
11448;BME280;43755;49.736;8.734;2023-02-10T06:35:02;99857.44;;;-1.33;100.00
11448;BME280;43755;49.736;8.734;2023-02-10T06:37:03;99859.25;;;-1.31;100.00
11448;BME280;43755;49.736;8.734;2023-02-10T06:39:05;99860.97;;;-1.31;100.00
11448;BME280;43755;49.736;8.734;2023-02-10T06:41:06;99856.75;;;-1.28;100.00
11448;BME280;43755;49.736;8.734;2023-02-10T06:43:08;99858.72;;;-1.20;100.00
11448;BME280;43755;49.736;8.734;2023-02-10T06:45:10;99856.19;;;-1.19;100.00
11448;BME280;43755;49.736;8.734;2023-02-10T06:47:11;99857.22;;;-1.14;100.00
11448;BME280;43755;49.736;8.734;2023-02-10T06:49:13;99865.09;;;-1.11;100.00
11448;BME280;43755;49.736;8.734;2023-02-10T06:51:16;99858.31;;;-1.07;100.00
11448;BME280;43755;49.736;8.734;2023-02-10T06:53:17;99866.38;;;-0.98;100.00
11448;BME280;43755;49.736;8.734;2023-02-10T06:55:18;99866.25;;;-1.03;100.00
11448;BME280;43755;49.736;8.734;2023-02-10T06:57:20;99866.13;;;-1.06;100.00
11448;BME280;43755;49.736;8.734;2023-02-10T06:59:21;99867.19;;;-1.01;100.00
11448;BME280;43755;49.736;8.734;2023-02-10T07:01:23;99868.84;;;-1.03;100.00
11448;BME280;43755;49.736;8.734;2023-02-10T07:03:24;99872.41;;;-0.99;100.00
11448;BME280;43755;49.736;8.734;2023-02-10T07:05:26;99868.34;;;-0.91;100.00
11448;BME280;43755;49.736;8.734;2023-02-10T07:07:29;99866.00;;;-0.84;100.00
11448;BME280;43755;49.736;8.734;2023-02-10T07:09:31;99868.84;;;-0.76;100.00
11448;BME280;43755;49.736;8.734;2023-02-10T07:11:33;99868.88;;;-0.74;100.00
11448;BME280;43755;49.736;8.734;2023-02-10T07:13:34;99869.88;;;-0.71;100.00
11448;BME280;43755;49.736;8.734;2023-02-10T07:15:36;99870.59;;;-0.75;100.00
11448;BME280;43755;49.736;8.734;2023-02-10T07:17:37;99875.03;;;-0.72;100.00
11448;BME280;43755;49.736;8.734;2023-02-10T07:19:39;99873.25;;;-0.73;100.00
11448;BME280;43755;49.736;8.734;2023-02-10T07:21:40;99869.81;;;-0.72;100.00
11448;BME280;43755;49.736;8.734;2023-02-10T07:23:43;99875.03;;;-0.72;100.00
11448;BME280;43755;49.736;8.734;2023-02-10T07:25:44;99868.34;;;-0.64;100.00
11448;BME280;43755;49.736;8.734;2023-02-10T07:27:46;99864.00;;;-0.64;100.00
11448;BME280;43755;49.736;8.734;2023-02-10T07:29:47;99867.47;;;-0.65;100.00
11448;BME280;43755;49.736;8.734;2023-02-10T07:31:49;99867.31;;;-0.69;100.00
11448;BME280;43755;49.736;8.734;2023-02-10T07:33:50;99870.84;;;-0.67;100.00
11448;BME280;43755;49.736;8.734;2023-02-10T07:35:52;99865.59;;;-0.69;100.00
11448;BME280;43755;49.736;8.734;2023-02-10T07:37:54;99865.59;;;-0.69;100.00
11448;BME280;43755;49.736;8.734;2023-02-10T07:39:56;99867.41;;;-0.66;100.00
11448;BME280;43755;49.736;8.734;2023-02-10T07:41:58;99876.09;;;-0.66;100.00
11448;BME280;43755;49.736;8.734;2023-02-10T07:43:59;99884.09;;;-0.60;100.00
11448;BME280;43755;49.736;8.734;2023-02-10T07:46:01;99877.00;;;-0.64;100.00
11448;BME280;43755;49.736;8.734;2023-02-10T07:48:02;99876.00;;;-0.69;100.00
11448;BME280;43755;49.736;8.734;2023-02-10T07:50:04;99872.69;;;-0.65;100.00
11448;BME280;43755;49.736;8.734;2023-02-10T07:52:06;99872.63;;;-0.66;100.00
11448;BME280;43755;49.736;8.734;2023-02-10T07:54:07;99874.41;;;-0.64;100.00
11448;BME280;43755;49.736;8.734;2023-02-10T07:56:10;99873.31;;;-0.72;100.00
11448;BME280;43755;49.736;8.734;2023-02-10T07:58:12;99874.84;;;-0.78;100.00
11448;BME280;43755;49.736;8.734;2023-02-10T08:00:14;99875.41;;;-0.87;100.00
11448;BME280;43755;49.736;8.734;2023-02-10T08:02:15;99880.38;;;-0.95;100.00
11448;BME280;43755;49.736;8.734;2023-02-10T08:04:17;99879.44;;;-0.97;100.00
11448;BME280;43755;49.736;8.734;2023-02-10T08:06:19;99887.91;;;-1.02;100.00
11448;BME280;43755;49.736;8.734;2023-02-10T08:08:20;99890.50;;;-1.02;100.00
11448;BME280;43755;49.736;8.734;2023-02-10T08:10:22;99887.97;;;-1.01;100.00
11448;BME280;43755;49.736;8.734;2023-02-10T08:12:25;99891.59;;;-0.96;100.00
11448;BME280;43755;49.736;8.734;2023-02-10T08:14:26;99898.72;;;-0.90;100.00
11448;BME280;43755;49.736;8.734;2023-02-10T08:16:28;99896.41;;;-0.81;100.00
11448;BME280;43755;49.736;8.734;2023-02-10T08:18:29;99907.81;;;-0.76;100.00
11448;BME280;43755;49.736;8.734;2023-02-10T08:20:31;99914.16;;;-0.68;100.00
11448;BME280;43755;49.736;8.734;2023-02-10T08:22:32;99907.69;;;-0.54;100.00
11448;BME280;43755;49.736;8.734;2023-02-10T08:24:34;99906.50;;;-0.36;100.00
11448;BME280;43755;49.736;8.734;2023-02-10T08:26:35;99902.50;;;-0.25;100.00
11448;BME280;43755;49.736;8.734;2023-02-10T08:28:39;99911.56;;;-0.13;100.00
11448;BME280;43755;49.736;8.734;2023-02-10T08:30:41;99908.31;;;-0.04;100.00
11448;BME280;43755;49.736;8.734;2023-02-10T08:32:42;99908.09;;;0.18;100.00
11448;BME280;43755;49.736;8.734;2023-02-10T08:34:45;99917.03;;;0.26;99.59
11448;BME280;43755;49.736;8.734;2023-02-10T08:36:46;99911.16;;;0.33;99.36
11448;BME280;43755;49.736;8.734;2023-02-10T08:38:48;99916.31;;;0.32;97.00
11448;BME280;43755;49.736;8.734;2023-02-10T08:40:54;99911.63;;;0.50;97.33
11448;BME280;43755;49.736;8.734;2023-02-10T08:42:56;99915.00;;;0.46;94.24
11448;BME280;43755;49.736;8.734;2023-02-10T08:44:59;99915.34;;;0.58;95.52
11448;BME280;43755;49.736;8.734;2023-02-10T08:47:01;99912.19;;;0.71;93.84
11448;BME280;43755;49.736;8.734;2023-02-10T08:49:02;99917.22;;;0.64;94.27
11448;BME280;43755;49.736;8.734;2023-02-10T08:51:06;99921.66;;;0.68;93.98
11448;BME280;43755;49.736;8.734;2023-02-10T08:53:08;99928.63;;;0.69;95.18
11448;BME280;43755;49.736;8.734;2023-02-10T08:55:10;99922.72;;;0.74;96.37
11448;BME280;43755;49.736;8.734;2023-02-10T08:57:12;99931.13;;;0.64;95.57
11448;BME280;43755;49.736;8.734;2023-02-10T08:59:13;99937.41;;;0.72;94.50
11448;BME280;43755;49.736;8.734;2023-02-10T09:01:18;99936.28;;;0.63;95.50
11448;BME280;43755;49.736;8.734;2023-02-10T09:03:20;99938.69;;;0.55;96.74
11448;BME280;43755;49.736;8.734;2023-02-10T09:05:22;99944.81;;;0.57;99.41
11448;BME280;43755;49.736;8.734;2023-02-10T09:07:23;99950.88;;;0.56;97.91
11448;BME280;43755;49.736;8.734;2023-02-10T09:09:25;99952.91;;;0.68;98.54
11448;BME280;43755;49.736;8.734;2023-02-10T09:11:27;99953.16;;;0.77;98.91
11448;BME280;43755;49.736;8.734;2023-02-10T09:13:28;99957.69;;;0.84;98.62
11448;BME280;43755;49.736;8.734;2023-02-10T09:15:30;99959.00;;;1.00;98.19
11448;BME280;43755;49.736;8.734;2023-02-10T09:17:32;99960.16;;;1.11;94.45
11448;BME280;43755;49.736;8.734;2023-02-10T09:19:34;99965.88;;;1.31;93.29
11448;BME280;43755;49.736;8.734;2023-02-10T09:21:35;99964.47;;;1.43;92.09
11448;BME280;43755;49.736;8.734;2023-02-10T09:23:37;99968.00;;;1.45;88.45
11448;BME280;43755;49.736;8.734;2023-02-10T09:25:38;99965.59;;;1.53;87.54
11448;BME280;43755;49.736;8.734;2023-02-10T09:27:40;99963.38;;;1.71;86.22
11448;BME280;43755;49.736;8.734;2023-02-10T09:29:41;99963.31;;;1.68;86.22
11448;BME280;43755;49.736;8.734;2023-02-10T09:31:42;99958.22;;;1.73;86.95
11448;BME280;43755;49.736;8.734;2023-02-10T09:33:45;99959.38;;;1.85;84.47
11448;BME280;43755;49.736;8.734;2023-02-10T09:35:47;99958.22;;;1.73;83.35
11448;BME280;43755;49.736;8.734;2023-02-10T09:37:48;99960.91;;;1.76;84.68
11448;BME280;43755;49.736;8.734;2023-02-10T09:39:50;99954.84;;;1.77;84.55
11448;BME280;43755;49.736;8.734;2023-02-10T09:41:56;99954.56;;;1.66;85.50
11448;BME280;43755;49.736;8.734;2023-02-10T09:44:08;99959.88;;;1.69;85.60
11448;BME280;43755;49.736;8.734;2023-02-10T09:46:16;99960.53;;;1.60;85.05
11448;BME280;43755;49.736;8.734;2023-02-10T09:48:29;99957.03;;;1.60;85.15
11448;BME280;43755;49.736;8.734;2023-02-10T09:50:53;99959.03;;;1.70;85.56
11448;BME280;43755;49.736;8.734;2023-02-10T09:53:04;99960.56;;;1.62;83.42
11448;BME280;43755;49.736;8.734;2023-02-10T09:55:13;99955.94;;;1.86;85.34
11448;BME280;43755;49.736;8.734;2023-02-10T09:57:19;99952.44;;;1.86;85.34
11448;BME280;43755;49.736;8.734;2023-02-10T09:59:23;99958.78;;;1.97;83.64
11448;BME280;43755;49.736;8.734;2023-02-10T10:01:29;99957.25;;;2.06;85.48
11448;BME280;43755;49.736;8.734;2023-02-10T10:03:40;99958.78;;;1.97;85.49
11448;BME280;43755;49.736;8.734;2023-02-10T10:05:50;99957.09;;;1.99;83.31
11448;BME280;43755;49.736;8.734;2023-02-10T10:07:56;99959.59;;;1.94;85.24
11448;BME280;43755;49.736;8.734;2023-02-10T10:10:02;99961.53;;;2.03;83.80
11448;BME280;43755;49.736;8.734;2023-02-10T10:12:07;99962.50;;;2.08;84.13
11448;BME280;43755;49.736;8.734;2023-02-10T10:14:17;99961.00;;;2.19;83.70
11448;BME280;43755;49.736;8.734;2023-02-10T10:16:29;99962.94;;;2.28;81.75
11448;BME280;43755;49.736;8.734;2023-02-10T10:18:41;99960.72;;;2.47;77.68
11448;BME280;43755;49.736;8.734;2023-02-10T10:20:50;99960.50;;;2.37;72.73
11448;BME280;43755;49.736;8.734;2023-02-10T10:23:01;99960.66;;;2.43;71.94
11448;BME280;43755;49.736;8.734;2023-02-10T10:25:32;99961.56;;;2.45;78.12
11448;BME280;43755;49.736;8.734;2023-02-10T10:27:51;99967.81;;;2.52;75.14
11448;BME280;43755;49.736;8.734;2023-02-10T10:30:00;99965.88;;;2.43;73.55
11448;BME280;43755;49.736;8.734;2023-02-10T10:32:13;99957.97;;;2.40;74.91
11448;BME280;43755;49.736;8.734;2023-02-10T10:34:16;99972.16;;;2.51;74.78
11448;BME280;43755;49.736;8.734;2023-02-10T10:36:21;99967.59;;;2.41;74.76
11448;BME280;43755;49.736;8.734;2023-02-10T10:38:29;99970.34;;;2.48;77.07
11448;BME280;43755;49.736;8.734;2023-02-10T10:40:32;99965.53;;;2.68;74.64
11448;BME280;43755;49.736;8.734;2023-02-10T10:42:40;99956.97;;;2.77;73.83
11448;BME280;43755;49.736;8.734;2023-02-10T10:44:42;99958.78;;;2.79;71.36
11448;BME280;43755;49.736;8.734;2023-02-10T10:46:47;99955.09;;;2.70;70.80
11448;BME280;43755;49.736;8.734;2023-02-10T10:48:50;99956.31;;;2.87;71.97